createdAt,value
2017-04-26T12:55:09.902Z,63.90
2017-04-26T12:57:37.318Z,65.70
2017-04-26T13:00:04.912Z,68.80
2017-04-26T13:02:31.957Z,70.50
2017-04-26T13:04:59.756Z,63.50
2017-04-26T13:07:27.435Z,65.40
2017-04-26T13:09:55.122Z,62.10
2017-04-26T13:12:22.837Z,59.70
2017-04-26T13:14:49.878Z,61.30
2017-04-26T13:17:18.317Z,61.90
2017-04-26T13:19:45.422Z,62.50
2017-04-26T13:22:14.114Z,63.70
2017-04-26T13:24:42.715Z,65.20
2017-04-26T13:27:10.573Z,67.00
2017-04-26T13:29:38.368Z,65.70
2017-04-26T13:32:05.424Z,67.00
2017-04-26T13:34:32.450Z,68.70
2017-04-26T13:37:00.225Z,68.30
2017-04-26T13:39:28.809Z,69.00
2017-04-26T13:41:57.128Z,69.40
2017-04-26T13:44:24.180Z,71.10
2017-04-26T13:46:51.263Z,69.50
2017-04-26T13:49:18.313Z,70.60
2017-04-26T13:51:45.573Z,71.50
2017-04-26T13:54:13.057Z,69.10
2017-04-26T13:56:40.198Z,70.40
2017-04-26T13:59:07.299Z,71.20
2017-04-26T14:01:34.442Z,69.70
2017-04-26T14:04:02.223Z,70.00
2017-04-26T14:06:29.263Z,71.50
2017-04-26T14:08:56.288Z,74.00
2017-04-26T14:11:23.319Z,72.40
2017-04-26T14:13:50.368Z,74.30
2017-04-26T14:16:17.430Z,75.40
2017-04-26T14:18:45.020Z,73.80
2017-04-26T14:21:12.725Z,75.50
2017-04-26T14:23:39.837Z,76.50
2017-04-26T14:26:07.159Z,73.40
2017-04-26T14:28:35.284Z,72.80
2017-04-26T14:31:03.684Z,73.10
2017-04-26T14:33:32.071Z,71.20
2017-04-26T14:35:59.537Z,71.30
2017-04-26T14:38:26.601Z,69.00
2017-04-26T14:40:54.295Z,66.70
2017-04-26T14:43:21.529Z,63.20
2017-04-26T14:45:48.785Z,61.10
2017-04-26T14:48:16.354Z,61.40
2017-04-26T14:50:43.884Z,59.60
2017-04-26T14:53:12.210Z,58.60
2017-04-26T14:55:39.735Z,58.40
2017-04-26T14:58:08.220Z,57.90
2017-04-26T15:00:36.604Z,57.70
2017-04-26T15:03:03.680Z,55.80
2017-04-26T15:05:30.768Z,53.40
2017-04-26T15:07:57.814Z,54.70
2017-04-26T15:10:25.226Z,57.50
2017-04-26T15:12:52.452Z,58.10
2017-04-26T15:15:19.519Z,56.70
2017-04-26T15:17:46.574Z,57.20
2017-04-26T15:20:14.163Z,58.90
2017-04-26T15:22:41.770Z,57.90
2017-04-26T15:25:09.562Z,59.60
2017-04-26T15:27:37.179Z,60.00
2017-04-26T15:30:04.267Z,62.60
2017-04-26T15:32:31.891Z,65.30
2017-04-26T15:34:59.855Z,64.90
2017-04-26T15:37:28.228Z,65.80
2017-04-26T15:39:57.664Z,66.80
2017-04-26T15:42:25.413Z,67.60
2017-04-26T15:44:53.809Z,68.30
2017-04-26T15:47:21.184Z,69.50
2017-04-26T15:49:48.298Z,68.60
2017-04-26T15:52:15.397Z,69.70
2017-04-26T15:54:42.521Z,69.70
2017-04-26T15:57:10.304Z,69.90
2017-04-26T15:59:37.418Z,67.40
2017-04-26T16:02:04.449Z,68.10
2017-04-26T16:04:31.476Z,67.50
2017-04-26T16:06:58.547Z,68.10
2017-04-26T16:09:25.591Z,69.50
2017-04-26T16:11:52.668Z,68.70
2017-04-26T16:14:21.888Z,68.80
2017-04-26T16:16:48.992Z,70.00
2017-04-26T16:19:17.064Z,70.90
2017-04-26T16:21:44.102Z,71.90
2017-04-26T16:24:11.951Z,71.20
2017-04-26T16:26:39.011Z,69.20
2017-04-26T16:29:08.799Z,70.20
2017-04-26T16:31:35.965Z,70.80
2017-04-26T16:34:03.068Z,70.00
2017-04-26T16:36:30.243Z,70.10
2017-04-26T16:38:57.260Z,70.70
2017-04-26T16:41:25.163Z,70.30
2017-04-26T16:43:52.228Z,71.10
2017-04-26T16:46:19.621Z,71.30
2017-04-26T16:48:46.684Z,69.50
2017-04-26T16:51:14.582Z,71.10
2017-04-26T16:53:42.247Z,70.70
2017-04-26T16:56:09.804Z,70.10
2017-04-26T16:58:36.858Z,70.00
2017-04-26T17:01:03.921Z,71.10
2017-04-26T17:03:31.006Z,69.40
2017-04-26T17:05:58.089Z,71.30
2017-04-26T17:08:25.218Z,70.00
2017-04-26T17:10:52.263Z,70.20
2017-04-26T17:13:19.288Z,69.00
2017-04-26T17:15:46.396Z,68.60
2017-04-26T17:18:13.493Z,69.40
2017-04-26T17:20:41.141Z,69.90
2017-04-26T17:23:09.521Z,71.10
2017-04-26T17:25:37.740Z,70.90
2017-04-26T17:28:04.902Z,71.00
2017-04-26T17:30:31.933Z,71.10
2017-04-26T17:32:59.026Z,73.20
2017-04-26T17:35:26.073Z,74.00
2017-04-26T17:37:53.124Z,74.80
2017-04-26T17:40:20.383Z,75.50
2017-04-26T17:42:47.990Z,74.60
2017-04-26T17:45:15.455Z,74.50
2017-04-26T17:47:43.666Z,74.90
2017-04-26T17:50:11.507Z,75.30
2017-04-26T17:52:39.792Z,73.60
2017-04-26T17:55:08.067Z,74.10
2017-04-26T17:57:36.095Z,74.80
2017-04-26T18:00:05.416Z,74.50
2017-04-26T18:02:32.499Z,76.30
2017-04-26T18:04:59.562Z,76.20
2017-04-26T18:07:27.359Z,74.60
2017-04-26T18:09:54.489Z,74.60
2017-04-26T18:12:22.217Z,75.30
2017-04-26T18:14:49.571Z,75.80
2017-04-26T18:17:16.673Z,75.40
2017-04-26T18:19:44.506Z,74.90
2017-04-26T18:22:11.612Z,74.80
2017-04-26T18:24:38.652Z,74.90
2017-04-26T18:27:06.475Z,74.70
2017-04-26T18:29:33.522Z,75.50
2017-04-26T18:32:00.547Z,76.40
2017-04-26T18:34:27.642Z,77.60
2017-04-26T18:36:54.804Z,77.60
2017-04-26T18:39:21.883Z,78.50
2017-04-26T18:41:49.696Z,78.60
2017-04-26T18:44:16.731Z,79.10
2017-04-26T18:46:43.788Z,79.50
2017-04-26T18:49:10.854Z,80.60
2017-04-26T18:51:37.910Z,79.50
2017-04-26T18:54:05.001Z,79.80
2017-04-26T18:56:32.079Z,82.40
2017-04-26T18:58:59.213Z,82.70
2017-04-26T19:01:26.273Z,82.80
2017-04-26T19:03:53.317Z,82.70
2017-04-26T19:06:20.528Z,83.30
2017-04-26T19:08:47.729Z,82.70
2017-04-26T19:11:15.381Z,82.60
2017-04-26T19:13:42.476Z,82.10
2017-04-26T19:16:10.338Z,82.50
2017-04-26T19:18:38.120Z,82.90
2017-04-26T19:21:05.933Z,82.70
2017-04-26T19:23:33.779Z,82.20
2017-04-26T19:26:01.350Z,81.60
2017-04-26T19:28:28.390Z,81.60
2017-04-26T19:30:55.448Z,82.00
2017-04-26T19:33:22.587Z,81.10
2017-04-26T19:35:50.401Z,81.50
2017-04-26T19:38:17.469Z,82.40
2017-04-26T19:40:44.531Z,81.90
2017-04-26T19:43:11.577Z,81.10
2017-04-26T19:45:40.087Z,82.10
2017-04-26T19:48:07.128Z,81.50
2017-04-26T19:50:34.163Z,81.30
2017-04-26T19:53:01.293Z,81.40
2017-04-26T19:55:28.338Z,82.10
2017-04-26T19:57:55.379Z,83.10
2017-04-26T20:00:22.401Z,83.80
2017-04-26T20:02:49.457Z,84.70
2017-04-26T20:05:16.520Z,85.20
2017-04-26T20:07:44.612Z,85.70
2017-04-26T20:10:11.690Z,85.20
2017-04-26T20:12:38.713Z,84.90
2017-04-26T20:15:06.470Z,84.90
2017-04-26T20:17:34.249Z,85.90
2017-04-26T20:20:02.051Z,85.00
2017-04-26T20:22:29.162Z,84.80
2017-04-26T20:24:57.017Z,85.90
2017-04-26T20:27:24.096Z,85.10
2017-04-26T20:29:51.954Z,84.30
2017-04-26T20:32:19.790Z,84.50
2017-04-26T20:34:46.880Z,83.90
2017-04-26T20:37:14.822Z,83.60
2017-04-26T20:39:41.949Z,84.40
2017-04-26T20:42:09.044Z,84.20
2017-04-26T20:44:36.136Z,84.90
2017-04-26T20:47:03.948Z,85.30
2017-04-26T20:49:31.023Z,86.00
2017-04-26T20:51:58.089Z,85.80
2017-04-26T20:54:25.295Z,88.10
2017-04-26T20:56:52.381Z,87.50
2017-04-26T20:59:19.536Z,88.30
2017-04-26T21:01:46.605Z,87.40
2017-04-26T21:04:13.652Z,87.20
2017-04-26T21:06:40.745Z,86.80
2017-04-26T21:09:07.830Z,86.20
2017-04-26T21:11:34.967Z,86.30
2017-04-26T21:14:02.080Z,85.40
2017-04-26T21:16:29.937Z,86.00
2017-04-26T21:18:57.016Z,85.40
2017-04-26T21:21:24.820Z,85.90
2017-04-26T21:23:51.911Z,86.80
2017-04-26T21:26:18.955Z,87.40
2017-04-26T21:28:46.004Z,86.40
2017-04-26T21:31:13.092Z,86.10
2017-04-26T21:33:40.255Z,85.50
2017-04-26T21:36:08.583Z,85.70
2017-04-26T21:38:35.673Z,85.80
2017-04-26T21:41:02.903Z,86.30
2017-04-26T21:43:29.957Z,86.50
2017-04-26T21:45:57.138Z,86.00
2017-04-26T21:48:24.427Z,86.40
2017-04-26T21:50:51.503Z,86.80
2017-04-26T21:53:18.584Z,86.80
2017-04-26T21:55:45.655Z,86.80
2017-04-26T21:58:12.774Z,86.80
2017-04-26T22:00:39.956Z,87.60
2017-04-26T22:03:07.032Z,88.10
2017-04-26T22:05:34.932Z,87.80
2017-04-26T22:08:01.999Z,87.70
2017-04-26T22:10:29.176Z,88.40
2017-04-26T22:12:56.239Z,87.80
2017-04-26T22:15:23.416Z,87.60
2017-04-26T22:17:50.536Z,88.30
2017-04-26T22:20:17.615Z,88.60
2017-04-26T22:22:44.835Z,88.60
2017-04-26T22:25:11.954Z,87.70
2017-04-26T22:27:39.803Z,87.40
2017-04-26T22:30:06.862Z,87.00
2017-04-26T22:32:33.923Z,86.90
2017-04-26T22:35:01.736Z,86.70
2017-04-26T22:37:28.812Z,87.10
2017-04-26T22:39:55.898Z,87.00
2017-04-26T22:42:23.011Z,87.10
2017-04-26T22:44:50.127Z,87.00
2017-04-26T22:47:17.156Z,87.40
2017-04-26T22:49:44.955Z,87.80
2017-04-26T22:52:12.044Z,88.20
2017-04-26T22:54:39.112Z,88.60
2017-04-26T22:57:06.204Z,89.00
2017-04-26T22:59:33.984Z,89.30
2017-04-26T23:02:01.064Z,89.50
2017-04-26T23:04:28.124Z,89.90
2017-04-26T23:06:55.163Z,89.20
2017-04-26T23:09:22.300Z,87.50
2017-04-26T23:11:49.420Z,87.10
2017-04-26T23:14:16.497Z,87.10
2017-04-26T23:16:44.521Z,87.10
2017-04-26T23:19:11.669Z,87.20
2017-04-26T23:21:38.725Z,87.40
2017-04-26T23:24:05.965Z,87.50
2017-04-26T23:26:33.053Z,87.50
2017-04-26T23:29:00.149Z,87.70
2017-04-26T23:31:27.203Z,87.80
2017-04-26T23:33:54.240Z,87.40
2017-04-26T23:36:29.163Z,87.70
2017-04-26T23:38:56.228Z,87.40
2017-04-26T23:41:24.058Z,87.40
2017-04-26T23:43:51.148Z,87.80
2017-04-26T23:46:18.968Z,89.00
2017-04-26T23:48:46.067Z,89.90
2017-04-26T23:51:13.925Z,90.10
2017-04-26T23:53:40.971Z,90.20
2017-04-26T23:56:08.052Z,90.40
2017-04-26T23:58:35.898Z,90.30
